Data for 09/28/2013

Time Sea-Level Adjusted Pressure Absolute Pressure Temperature Relative Humidity Dew Point   
(mb) (inHg) (mb) (inHg) (C) (F) (%) (C) (F)
00:05 1016 30 845 24.95 6.8 44.3 49 -3 26.6
00:10 1016 30 845 24.95 7.1 44.8 48 -3.2 26.3
00:15 1016 30 845 24.95 7.2 45 49 -2.8 27
00:20 1016 30 845 24.95 7.2 44.9 48 -3 26.5
00:25 1016 30 845 24.95 7.2 45 48 -2.9 26.7
00:30 1016 30 845 24.95 7.3 45.1 47 -3.3 26.1
00:35 1016 30 845 24.95 7.4 45.3 47 -3.2 26.2
00:40 1016 30 845 24.95 7.4 45.4 47 -3.2 26.3
00:45 1016 30 845 24.95 7.4 45.3 47 -3.1 26.5
00:50 1016 30 845 24.95 7.3 45.1 48 -3 26.6
00:55 1016 30 845 24.95 7.3 45.1 48 -2.9 26.7
01:00 1016 30 845 24.95 7.3 45.2 46 -3.4 25.8
01:05 1016 30 845 24.95 7.5 45.4 46 -3.3 26.1
01:10 1016 30 845 24.95 7.5 45.5 46 -3.3 26.1
01:15 1016 30 845 24.95 7.5 45.5 47 -3.2 26.3
01:20 1016 30 845 24.95 7.4 45.4 46 -3.4 25.9
01:25 1016 30 845 24.95 7.4 45.3 47 -3.2 26.3
01:30 1016 30 845 24.95 7.3 45.1 48 -2.9 26.8
01:35 1016 30 845 24.95 7.1 44.8 49 -2.9 26.7
01:40 1016 30 845 24.95 7.1 44.7 49 -2.9 26.9
01:45 1016 30 845 24.95 7.1 44.7 49 -2.8 27
01:50 1016 30 845 24.95 7.1 44.7 48 -3.1 26.5
01:55 1016 30 845 24.95 7.3 45.1 47 -3.2 26.3
02:00 1016 30 845 24.95 7.4 45.4 48 -2.8 27
02:05 1016 30 845 24.95 7.4 45.3 49 -2.7 27.2
02:10 1016 30 845 24.95 7.3 45.1 49 -2.7 27.1
02:15 1016 30 845 24.95 7.3 45.1 49 -2.8 26.9
02:20 1016 30 845 24.95 7.4 45.2 49 -2.6 27.2
02:25 1016 30 845 24.95 7.3 45.1 50 -2.4 27.7
02:30 1016 30 845 24.95 7.2 44.9 51 -2.3 27.8
02:35 1016 30 845 24.95 7 44.7 52 -2.1 28.3
02:40 1016 30 845 24.95 6.9 44.4 50 -2.7 27.1
02:45 1016 30 845 24.95 7.3 45.2 48 -2.8 27
02:50 1016 30 845 24.95 7.6 45.6 49 -2.5 27.4
02:55 1016 30 845 24.95 7.6 45.6 48 -2.6 27.3
03:00 1016 30 845 24.95 7.7 45.8 48 -2.6 27.4
03:05 1016 30 845 24.95 7.8 46 49 -2.2 28.1
03:10 1016 30 845 24.95 7.6 45.8 51 -1.9 28.5
03:15 1016 30 845 24.95 7.5 45.6 51 -1.8 28.7
03:20 1016 30 845 24.95 7.4 45.3 52 -1.7 29
03:25 1016 30 845 24.95 7.3 45.2 53 -1.7 29
03:30 1016 30 845 24.95 7.2 45 54 -1.6 29.2
03:35 1016 30 845 24.95 7.2 45 54 -1.5 29.4
03:40 1016 30 845 24.95 7.1 44.8 55 -1.3 29.6
03:45 1016 30 845 24.95 7 44.6 55 -1.4 29.5
03:50 1016 30 845 24.95 7 44.6 55 -1.4 29.4
03:55 1016 30 845 24.95 7 44.6 56 -1.1 30
04:00 1015 29.97 845 24.95 7 44.5 56 -1.2 29.8
04:05 1015 29.97 845 24.95 7.1 44.8 55 -1.4 29.5
04:10 1015 29.97 845 24.95 7.3 45.1 55 -1.1 30
04:15 1015 29.97 845 24.95 7.1 44.9 56 -0.9 30.3
04:20 1016 30 845 24.95 6.9 44.5 57 -0.9 30.4
04:25 1016 30 845 24.95 6.8 44.3 56 -1.2 29.9
04:30 1016 30 845 24.95 6.9 44.5 56 -1.2 29.9
04:35 1016 30 845 24.95 7 44.5 56 -1.1 29.9
04:40 1016 30 845 24.95 7.2 45 53 -1.8 28.8
04:45 1016 30 845 24.95 7.6 45.6 52 -1.6 29.1
04:50 1016 30 845 24.95 7.5 45.5 53 -1.5 29.2
04:55 1016 30 845 24.95 7.5 45.4 52 -1.9 28.7
05:00 1016 30 845 24.95 7.6 45.7 52 -1.5 29.2
05:05 1016 30 845 24.95 7.5 45.5 56 -0.6 30.9
05:10 1016 30 845 24.95 6.6 44 60 -0.6 31
05:15 1016 30 845 24.95 6.1 43 61 -0.7 30.7
05:20 1016 30 845 24.95 5.9 42.6 62 -0.7 30.7
05:25 1016 30 845 24.95 6 42.7 60 -1.2 29.8
05:30 1016 30 845 24.95 6.3 43.3 58 -1.4 29.6
05:35 1016 30 845 24.95 6.4 43.6 59 -1 30.2
05:40 1016 30 845 24.95 6.4 43.5 61 -0.6 30.8
05:45 1016 30 845 24.95 6.1 42.9 63 -0.4 31.3
05:50 1016 30 845 24.95 5.8 42.4 64 -0.4 31.2
05:55 1016 30 845 24.95 5.7 42.3 63 -0.8 30.6
06:00 1016 30 845 24.95 5.9 42.6 62 -0.9 30.4
06:05 1016 30 845 24.95 6.1 43.1 61 -0.8 30.6
06:10 1016 30 845 24.95 6.2 43.2 63 -0.2 31.7
06:15 1016 30 845 24.95 6.1 43 64 -0.2 31.7
06:20 1016 30 845 24.95 5.9 42.6 64 -0.3 31.5
06:25 1016 30 845 24.95 5.8 42.4 65 -0.4 31.4
06:30 1016 30 845 24.95 5.9 42.7 64 -0.4 31.2
06:35 1016 30 845 24.95 5.9 42.6 64 -0.3 31.4
06:40 1016 30 845 24.95 5.9 42.6 62 -0.7 30.7
06:45 1016 30 845 24.95 5.9 42.7 65 -0.2 31.6
06:50 1016 30 846 24.98 5.9 42.6 61 -1 30.2
06:55 1016 30 846 24.98 6 42.7 63 -0.6 31
07:00 1016 30 846 24.98 5.8 42.4 66 -0 31.9
07:05 1017 30.03 846 24.98 5.6 42.1 67 0.1 32.1
07:10 1017 30.03 846 24.98 5.6 42.1 67 -0.1 31.9
07:15 1017 30.03 846 24.98 5.6 42 67 0 32
07:20 1017 30.03 846 24.98 5.7 42.2 66 -0.1 31.8
07:25 1016 30 846 24.98 5.7 42.3 66 -0.1 31.9
07:30 1016 30 846 24.98 5.8 42.4 67 0.1 32.1
07:35 1016 30 846 24.98 5.9 42.6 68 0.5 32.8
07:40 1016 30 846 24.98 6 42.7 67 0.3 32.5
07:45 1016 30 846 24.98 6 42.9 66 0.1 32.2
07:50 1016 30 846 24.98 6.1 42.9 66 0.1 32.2
07:55 1017 30.03 846 24.98 6.1 43 66 0.2 32.4
08:00 1017 30.03 846 24.98 6.2 43.2 64 -0 31.9
08:05 1017 30.03 846 24.98 6.3 43.4 66 0.4 32.8
08:10 1017 30.03 846 24.98 6.4 43.6 65 0.3 32.6
08:15 1017 30.03 846 24.98 6.6 43.9 65 0.5 32.9
08:20 1017 30.03 846 24.98 6.7 44 64 0.3 32.5
08:25 1017 30.03 846 24.98 6.8 44.3 66 0.9 33.6
08:30 1017 30.03 846 24.98 7.1 44.7 65 1 33.8
08:35 1017 30.03 846 24.98 7.1 44.8 63 0.6 33.2
08:40 1017 30.03 846 24.98 7.2 44.9 63 0.6 33.1
08:45 1017 30.03 846 24.98 7.2 45 65 1 33.8
08:50 1017 30.03 846 24.98 7.3 45.2 62 0.6 33
08:55 1016 30 846 24.98 7.5 45.5 63 1 33.8
09:00 1016 30 846 24.98 7.6 45.7 60 0.5 32.9
09:05 1017 30.03 846 24.98 7.8 46.1 59 0.3 32.6
09:10 1017 30.03 846 24.98 8 46.3 62 1.1 33.9
09:15 1016 30 846 24.98 8.1 46.7 60 0.9 33.5
09:20 1016 30 846 24.98 8.3 47 60 1 33.8
09:25 1016 30 846 24.98 8.6 47.4 58 0.8 33.5
09:30 1016 30 846 24.98 8.9 47.9 54 0.2 32.3
09:35 1016 30 846 24.98 9.3 48.7 53 0.2 32.3
09:40 1016 30 846 24.98 9.7 49.4 52 0.3 32.6
09:45 1016 30 846 24.98 9.9 49.8 53 0.8 33.5
09:50 1016 30 846 24.98 9.6 49.3 54 0.8 33.5
09:55 1016 30 846 24.98 9.7 49.4 53 0.5 32.9
10:00 1016 30 846 24.98 9.8 49.6 52 0.4 32.8
10:05 1016 30 846 24.98 9.6 49.3 52 0.3 32.6
10:10 1016 30 846 24.98 9.7 49.5 53 0.7 33.3
10:15 1016 30 846 24.98 9.7 49.5 53 0.6 33.1
10:20 1016 30 845 24.95 9.8 49.6 54 0.9 33.6
10:25 1016 30 845 24.95 9.9 49.8 53 0.8 33.5
10:30 1016 30 845 24.95 10.2 50.3 53 1 33.8
10:35 1016 30 845 24.95 10.1 50.2 52 0.8 33.5
10:40 1016 30 845 24.95 10.4 50.7 49 0.2 32.3
10:45 1016 30 845 24.95 10.7 51.2 50 0.6 33.1
10:50 1016 30 845 24.95 10.8 51.4 49 0.6 33.1
10:55 1016 30 845 24.95 11 51.8 48 0.5 33
11:00 1016 30 845 24.95 11.2 52.1 48 0.5 32.9
11:05 1016 30 845 24.95 11.4 52.5 47 0.5 32.9
11:10 1016 30 845 24.95 11.5 52.7 46 0.3 32.6
11:15 1016 30 845 24.95 11.6 52.9 47 0.7 33.2
11:20 1016 30 845 24.95 12 53.6 45 0.5 32.9
11:25 1016 30 845 24.95 11.9 53.5 46 0.8 33.4
11:30 1016 30 845 24.95 12.2 54 45 0.7 33.2
11:35 1016 30 845 24.95 12.1 53.7 45 0.6 33
11:40 1016 30 845 24.95 11.9 53.4 45 0.5 32.9
11:45 1016 30 845 24.95 12.3 54.2 42 -0 31.9
11:50 1016 30 845 24.95 12.5 54.5 44 0.5 32.9
11:55 1016 30 845 24.95 12.9 55.2 42 0.4 32.7
12:00 1016 30 845 24.95 13.1 55.6 41 0.3 32.5
12:05 1016 30 845 24.95 13.3 56 42 0.6 33.1
12:10 1016 30 845 24.95 13.9 57.1 40 0.6 33.1
12:15 1016 30 845 24.95 14.5 58 39 0.9 33.6
12:20 1016 30 845 24.95 13.7 56.7 42 1 33.8
12:25 1016 30 845 24.95 13.6 56.5 40 0.4 32.8
12:30 1016 30 845 24.95 13.9 57 40 0.6 33.1
12:35 1016 30 845 24.95 14 57.2 38 -0.1 31.9
12:40 1016 30 845 24.95 13.7 56.7 41 0.9 33.7
12:45 1016 30 845 24.95 13.8 56.9 39 0.2 32.4
12:50 1016 30 845 24.95 13.9 57 40 0.6 33
12:55 1016 30 845 24.95 13.9 57.1 40 0.7 33.3
13:00 1016 30 845 24.95 14 57.1 38 -0.1 31.7
13:05 1016 30 845 24.95 14.1 57.3 38 0 32
13:10 1016 30 845 24.95 14.1 57.4 38 0 32
13:15 1016 30 845 24.95 14.2 57.6 37 -0.2 31.6
13:20 1016 30 845 24.95 14.1 57.4 38 0.1 32.3
13:25 1016 30 845 24.95 14.1 57.4 38 0.1 32.2
13:30 1016 30 845 24.95 14.3 57.7 37 -0.3 31.4
13:35 1016 30 845 24.95 14.3 57.7 38 0.2 32.3
13:40 1016 30 845 24.95 14.3 57.7 38 0.1 32.1
13:45 1016 30 845 24.95 14.1 57.4 36 -0.6 31
13:50 1016 30 845 24.95 14.2 57.5 38 0.1 32.2
13:55 1016 30 845 24.95 14.3 57.7 37 0 32.1
14:00 1016 30 845 24.95 14.3 57.7 37 0 32
14:05 1016 30 845 24.95 14.3 57.7 37 -0.2 31.7
14:10 1016 30 845 24.95 14.3 57.7 38 0.1 32.2
14:15 1016 30 845 24.95 14.3 57.7 36 -0.5 31
14:20 1016 30 845 24.95 14.2 57.6 38 0.1 32.2
14:25 1016 30 845 24.95 14.3 57.7 37 -0.2 31.6
14:30 1016 30 845 24.95 14.3 57.7 38 0.3 32.5
14:35 1016 30 845 24.95 14.3 57.8 38 0.1 32.2
14:40 1016 30 845 24.95 14.3 57.7 37 0.1 32.1
14:45 1016 30 845 24.95 14.2 57.6 37 -0 31.9
14:50 1016 30 845 24.95 14.2 57.5 37 -0 31.9
14:55 1016 30 845 24.95 14.2 57.5 38 0.1 32.2
15:00 1016 30 845 24.95 14.2 57.5 36 -0.4 31.2
15:05 1016 30 845 24.95 14.1 57.4 39 0.3 32.5
15:10 1016 30 845 24.95 14.1 57.3 37 -0.2 31.6
15:15 1016 30 845 24.95 14.1 57.3 39 0.3 32.5
15:20 1016 30 845 24.95 14.1 57.3 38 -0.1 31.8
15:25 1016 30 845 24.95 14.1 57.3 36 -0.8 30.5
15:30 1016 30 845 24.95 14.1 57.3 37 -0.3 31.5
15:35 1016 30 845 24.95 14 57.2 36 -0.6 31
15:40 1016 30 845 24.95 14.1 57.3 36 -0.8 30.5
15:45 1016 30 845 24.95 14.2 57.5 36 -0.5 31
15:50 1016 30 845 24.95 14.3 57.7 35 -0.8 30.5
15:55 1016 30 845 24.95 14.4 57.8 35 -0.9 30.3
16:00 1016 30 845 24.95 14.4 57.9 36 -0.4 31.3
16:05 1016 30 845 24.95 14.4 58 34 -0.9 30.3
16:10 1016 30 845 24.95 14.5 58.1 35 -0.7 30.7
16:15 1016 30 845 24.95 14.5 58.1 35 -0.8 30.6
16:20 1016 30 845 24.95 14.5 58.1 34 -1.1 30
16:25 1016 30 845 24.95 14.6 58.2 35 -0.8 30.6
16:30 1016 30 845 24.95 14.4 58 36 -0.6 31
16:35 1016 30 845 24.95 14.3 57.8 36 -0.5 31.1
16:40 1016 30 845 24.95 14.3 57.7 36 -0.4 31.4
16:45 1016 30 845 24.95 14.2 57.5 36 -0.8 30.6
16:50 1016 30 845 24.95 14.2 57.6 34 -1.3 29.7
16:55 1015 29.97 845 24.95 14.2 57.5 35 -1.2 29.9
17:00 1015 29.97 845 24.95 14.1 57.3 36 -0.9 30.4
17:05 1015 29.97 845 24.95 13.9 57.1 36 -0.7 30.7
17:10 1015 29.97 845 24.95 13.8 56.8 36 -0.8 30.5
17:15 1015 29.97 845 24.95 13.8 56.8 36 -0.8 30.6
17:20 1015 29.97 845 24.95 13.7 56.7 36 -1.1 30.1
17:25 1015 29.97 844 24.92 13.6 56.4 36 -1.1 30.1
17:30 1015 29.97 844 24.92 13.5 56.3 37 -1 30.3
17:35 1015 29.97 844 24.92 13.4 56.1 36 -1.2 29.8
17:40 1015 29.97 844 24.92 13.3 55.9 36 -1.2 29.8
17:45 1015 29.97 844 24.92 13.3 55.9 36 -1.4 29.5
17:50 1015 29.97 844 24.92 13.2 55.8 36 -1.6 29.1
17:55 1015 29.97 844 24.92 13.2 55.8 36 -1.4 29.4
18:00 1015 29.97 844 24.92 13.3 55.9 36 -1.4 29.5
18:05 1015 29.97 844 24.92 13.2 55.7 36 -1.7 29
18:10 1015 29.97 844 24.92 13.2 55.8 36 -1.4 29.4
18:15 1015 29.97 844 24.92 13.1 55.6 36 -1.5 29.4
18:20 1015 29.97 844 24.92 13.2 55.7 36 -1.6 29
18:25 1015 29.97 844 24.92 13.2 55.7 37 -1.3 29.6
18:30 1015 29.97 844 24.92 13.1 55.5 37 -1.3 29.7
18:35 1015 29.97 844 24.92 13.3 55.9 36 -1.3 29.6
18:40 1015 29.97 844 24.92 13.2 55.8 35 -1.7 28.9
18:45 1015 29.97 844 24.92 13.5 56.3 35 -1.5 29.2
18:50 1015 29.97 844 24.92 13.5 56.2 35 -1.7 28.9
18:55 1015 29.97 844 24.92 13.5 56.3 34 -1.9 28.7
19:00 1015 29.97 844 24.92 13.4 56.1 36 -1.4 29.5
19:05 1015 29.97 844 24.92 13.1 55.6 37 -1.2 29.8
19:10 1015 29.97 844 24.92 12.9 55.2 38 -1.2 29.9
19:15 1015 29.97 844 24.92 12.8 55 39 -0.9 30.5
19:20 1015 29.97 844 24.92 12.8 55 37 -1.6 29.2
19:25 1015 29.97 844 24.92 12.8 55 37 -1.6 29.2
19:30 1015 29.97 844 24.92 12.8 55 37 -1.5 29.4
19:35 1015 29.97 844 24.92 12.7 54.8 38 -1.3 29.6
19:40 1015 29.97 844 24.92 12.6 54.7 37 -1.7 29
19:45 1015 29.97 844 24.92 12.6 54.7 37 -1.7 28.9
19:50 1015 29.97 844 24.92 13 55.4 35 -2.1 28.3
19:55 1014 29.94 844 24.92 13.2 55.8 35 -1.8 28.8
20:00 1014 29.94 844 24.92 13.4 56 34 -2.2 28.1
20:05 1014 29.94 844 24.92 13.4 56.1 34 -2.3 27.9
20:10 1014 29.94 844 24.92 13.5 56.4 34 -2 28.4
20:15 1014 29.94 843 24.89 13.3 55.9 34 -2.3 27.8
20:20 1014 29.94 843 24.89 13.6 56.5 33 -2.1 28.3
20:25 1014 29.94 843 24.89 13.6 56.4 34 -1.9 28.6
20:30 1014 29.94 843 24.89 13.4 56.2 35 -1.7 28.9
20:35 1014 29.94 843 24.89 13.7 56.6 33 -2.1 28.3
20:40 1014 29.94 843 24.89 13.7 56.7 33 -2 28.3
20:45 1014 29.94 843 24.89 13.6 56.4 34 -1.7 28.9
20:50 1014 29.94 843 24.89 13.7 56.6 33 -2.2 28.1
20:55 1014 29.94 843 24.89 13.8 56.8 33 -1.9 28.5
21:00 1014 29.94 843 24.89 13.6 56.5 34 -2.1 28.3
21:05 1014 29.94 843 24.89 13.6 56.5 34 -2.1 28.3
21:10 1014 29.94 843 24.89 13.6 56.4 34 -2 28.4
21:15 1014 29.94 843 24.89 13.4 56 36 -1.4 29.4
21:20 1014 29.94 843 24.89 13.1 55.6 36 -1.6 29.2
21:25 1014 29.94 843 24.89 13.3 55.9 35 -1.7 29
21:30 1014 29.94 843 24.89 13.2 55.7 34 -2.2 28
21:35 1014 29.94 843 24.89 13.4 56.1 35 -1.6 29
21:40 1014 29.94 843 24.89 13.4 56 35 -1.8 28.8
21:45 1014 29.94 843 24.89 13.2 55.8 35 -1.8 28.7
21:50 1013 29.91 843 24.89 13.4 56 34 -2.2 28
21:55 1013 29.91 843 24.89 13.6 56.5 34 -2 28.5
22:00 1013 29.91 842 24.86 13.5 56.3 33 -2.4 27.7
22:05 1013 29.91 842 24.86 14 57.1 33 -1.9 28.6
22:10 1013 29.91 842 24.86 13.7 56.7 33 -2.1 28.2
22:15 1013 29.91 842 24.86 13.9 57.1 32 -2.3 27.8
22:20 1013 29.91 842 24.86 13.9 57 34 -1.8 28.7
22:25 1013 29.91 842 24.86 13.2 55.8 36 -1.6 29.1
22:30 1013 29.91 842 24.86 13.3 56 34 -2.1 28.2
22:35 1013 29.91 842 24.86 13.6 56.6 34 -1.9 28.6
22:40 1013 29.91 842 24.86 13.6 56.5 33 -2.3 27.8
22:45 1013 29.91 842 24.86 13.8 56.9 34 -1.9 28.6
22:50 1013 29.91 842 24.86 13.7 56.7 35 -1.6 29.2
22:55 1013 29.91 842 24.86 13.8 56.9 34 -1.9 28.6
23:00 1013 29.91 842 24.86 13.8 56.9 33 -1.9 28.6
23:05 1013 29.91 842 24.86 13.8 56.8 34 -1.9 28.6
23:10 1013 29.91 842 24.86 13.7 56.7 34 -1.7 29
23:15 1013 29.91 842 24.86 13.4 56.1 35 -1.7 28.9
23:20 1013 29.91 842 24.86 13.4 56.1 34 -2 28.4
23:25 1013 29.91 842 24.86 13.5 56.4 35 -1.5 29.3
23:30 1012 29.88 842 24.86 13.4 56.1 34 -2 28.4
23:35 1012 29.88 842 24.86 13.5 56.4 35 -1.6 29.1
23:40 1012 29.88 841 24.83 13.6 56.5 33 -2.3 27.9
23:45 1012 29.88 842 24.86 14 57.2 33 -1.9 28.6
23:50 1012 29.88 842 24.86 13.9 57 34 -1.8 28.7
23:55 1012 29.88 841 24.83 13.9 56.9 33 -2.1 28.3
24:00 1012 29.88 841 24.83 14 57.2 33 -2 28.4